Time;durP1;ratioP1;P1;durP2;ratioP2;P2;SDS_P1;SDS_P2;PMS_P1;PMS_P2;Temp;Humidity;BMP_temperature;BMP_pressure;BME280_temperature;BME280_humidity;BME280_pressure;Samples;Min_cycle;Max_cycle;Signal;HPM_P1;HPM_P2
2023/04/15 05:15:11;;;;;;;31.08;7.53;;;13.00;58.10;;;;;;5251759;23;20059;-76
2023/04/15 05:17:37;;;;;;;37.28;6.70;;;13.10;58.30;;;;;;4904436;29;20428;-76
2023/04/15 05:20:03;;;;;;;30.42;6.72;;;13.30;58.70;;;;;;4921319;29;20056;-74
2023/04/15 05:22:29;;;;;;;33.60;7.28;;;13.40;58.90;;;;;;4905052;29;20135;-78
2023/04/15 05:24:55;;;;;;;34.28;6.55;;;13.60;59.30;;;;;;4921442;29;20402;-79
2023/04/15 05:27:22;;;;;;;37.35;6.45;;;13.70;59.70;;;;;;4921585;29;20055;-78
2023/04/15 05:29:51;;;;;;;37.45;6.55;;;13.90;60.00;;;;;;4921269;29;20058;-79
2023/04/15 05:32:17;;;;;;;44.40;7.38;;;14.00;60.20;;;;;;4921299;29;20079;-78
2023/04/15 05:34:42;;;;;;;44.45;6.80;;;14.10;60.50;;;;;;4921661;29;20471;-81
2023/04/15 05:37:08;;;;;;;44.47;6.97;;;14.20;60.90;;;;;;4916305;29;20044;-77
2023/04/15 05:39:34;;;;;;;49.90;7.85;;;14.30;61.60;;;;;;4921138;29;20044;-78
2023/04/15 05:42:02;;;;;;;38.72;6.75;;;14.30;61.10;;;;;;4903762;29;20208;-82
2023/04/15 05:44:31;;;;;;;42.30;7.03;;;14.40;61.40;;;;;;4904583;29;20122;-78
2023/04/15 05:46:57;;;;;;;45.63;6.90;;;14.40;61.40;;;;;;4897768;29;20123;-76
2023/04/15 05:49:23;;;;;;;50.15;7.72;;;14.50;61.60;;;;;;4920316;29;20117;-77
2023/04/15 05:51:48;;;;;;;47.78;7.00;;;14.50;61.90;;;;;;4920345;29;20044;-79
2023/04/15 05:54:15;;;;;;;44.58;6.28;;;14.60;62.40;;;;;;4920564;29;20051;-77
2023/04/15 05:56:40;;;;;;;44.03;6.70;;;14.60;62.30;;;;;;4920673;29;20123;-76
2023/04/15 05:59:06;;;;;;;31.60;6.25;;;14.70;62.20;;;;;;4920017;29;20207;-74
2023/04/15 06:01:33;;;;;;;35.67;6.85;;;14.90;62.50;;;;;;4920721;29;20107;-75
2023/04/15 06:03:59;;;;;;;45.03;6.85;;;14.90;62.50;;;;;;4921249;29;20063;-73
2023/04/15 06:06:26;;;;;;;42.92;5.72;;;15.00;62.30;;;;;;4919928;29;20048;-77
2023/04/15 06:08:52;;;;;;;48.55;8.15;;;15.10;62.20;;;;;;4920663;29;20156;-79
2023/04/15 06:11:20;;;;;;;35.83;6.20;;;15.10;62.30;;;;;;4938278;29;20427;-79
2023/04/15 06:13:45;;;;;;;31.63;5.85;;;15.20;62.10;;;;;;4922497;29;20062;-78
2023/04/15 06:16:11;;;;;;;37.97;5.65;;;15.30;61.90;;;;;;4939253;29;20127;-78
2023/04/15 06:18:37;;;;;;;31.02;5.85;;;15.30;62.00;;;;;;4922427;29;20051;-77
2023/04/15 06:21:03;;;;;;;29.42;4.85;;;15.40;62.30;;;;;;4938973;29;20048;-77
2023/04/15 06:23:29;;;;;;;28.73;4.28;;;15.40;62.70;;;;;;4939391;29;20039;-79
2023/04/15 06:25:57;;;;;;;17.35;3.75;;;15.40;62.80;;;;;;4939438;29;20085;-79
2023/04/15 06:28:23;;;;;;;23.33;3.60;;;15.40;63.10;;;;;;4922050;29;20062;-78
2023/04/15 06:30:49;;;;;;;33.85;4.93;;;15.50;63.10;;;;;;4939214;29;20039;-77
2023/04/15 06:33:15;;;;;;;20.75;3.65;;;15.60;63.10;;;;;;4939163;29;20119;-81
2023/04/15 06:35:41;;;;;;;21.60;3.95;;;15.60;63.10;;;;;;4928907;29;20140;-78
2023/04/15 06:38:06;;;;;;;31.83;4.32;;;15.60;62.90;;;;;;4919066;29;20047;-80
2023/04/15 06:40:35;;;;;;;39.05;5.93;;;15.70;62.90;;;;;;4919019;29;20048;-83
2023/04/15 06:43:01;;;;;;;19.75;3.85;;;15.70;62.50;;;;;;4906136;29;20127;-78
2023/04/15 06:45:27;;;;;;;33.17;3.60;;;15.70;62.60;;;;;;4920051;29;20515;-79
2023/04/15 06:47:53;;;;;;;22.25;4.38;;;15.80;62.40;;;;;;4919847;29;20295;-78
2023/04/15 06:50:18;;;;;;;25.05;4.30;;;15.80;62.40;;;;;;4903032;29;20040;-80
2023/04/15 06:52:44;;;;;;;22.15;4.93;;;15.80;62.40;;;;;;4902753;29;20051;-78
2023/04/15 06:55:10;;;;;;;31.02;5.20;;;15.80;62.40;;;;;;4919298;29;20462;-77
2023/04/15 06:58:33;;;;;;;29.17;3.67;;;15.80;62.40;;;;;;4919459;29;20071;-81
2023/04/15 07:00:52;;;;;;;25.73;4.63;;;15.80;62.50;;;;;;4898950;29;20052;-78
2023/04/15 07:03:36;;;;;;;24.77;5.88;;;15.80;62.00;;;;;;4919054;29;20044;-82
2023/04/15 07:06:05;;;;;;;32.80;4.50;;;15.90;61.80;;;;;;4886473;29;20127;-82
2023/04/15 07:08:32;;;;;;;20.42;4.40;;;15.90;61.90;;;;;;4893522;29;20104;-75
2023/04/15 07:10:59;;;;;;;28.02;4.82;;;15.90;62.00;;;;;;4918995;29;20051;-78
2023/04/15 07:13:25;;;;;;;22.52;4.90;;;15.90;62.10;;;;;;4915972;29;20376;-77
2023/04/15 07:15:51;;;;;;;22.55;4.25;;;15.90;62.30;;;;;;4912017;29;20122;-77
2023/04/15 07:18:16;;;;;;;25.33;4.63;;;16.00;62.60;;;;;;4919387;29;20052;-77
2023/04/15 07:20:43;;;;;;;30.42;5.00;;;16.00;62.70;;;;;;4919518;29;20439;-77
2023/04/15 07:23:08;;;;;;;30.13;5.43;;;16.00;62.90;;;;;;4919297;29;20067;-77
2023/04/15 07:25:34;;;;;;;31.63;4.90;;;16.00;63.20;;;;;;4900366;29;20103;-78
2023/04/15 07:28:01;;;;;;;37.13;5.10;;;16.00;64.00;;;;;;4910846;29;20153;-76
2023/04/15 07:30:27;;;;;;;35.88;5.25;;;16.00;63.60;;;;;;4916795;29;20079;-82
2023/04/15 07:32:53;;;;;;;36.60;5.18;;;16.00;63.70;;;;;;4902115;29;20439;-77
2023/04/15 07:35:20;;;;;;;26.33;3.88;;;16.10;63.90;;;;;;4918840;29;20192;-79
2023/04/15 07:37:46;;;;;;;40.05;5.43;;;16.00;63.40;;;;;;4902575;29;20126;-77
2023/04/15 07:40:13;;;;;;;23.90;3.97;;;16.00;63.10;;;;;;4919540;29;20059;-78
2023/04/15 07:42:39;;;;;;;27.40;4.07;;;16.00;63.00;;;;;;4919149;29;20451;-78
2023/04/15 07:45:06;;;;;;;19.48;3.45;;;15.90;62.80;;;;;;4917809;29;20467;-78
2023/04/15 07:47:31;;;;;;;18.90;4.32;;;16.00;62.80;;;;;;4918588;29;20056;-81
2023/04/15 07:49:57;;;;;;;14.65;3.15;;;15.90;62.70;;;;;;4901106;29;20080;-81
2023/04/15 07:52:23;;;;;;;20.02;3.42;;;15.90;62.60;;;;;;4902231;29;20079;-82
2023/04/15 07:54:48;;;;;;;15.85;3.50;;;15.80;62.50;;;;;;4917514;29;20043;-78
2023/04/15 07:57:15;;;;;;;16.50;3.95;;;15.80;62.70;;;;;;4901165;29;20044;-79
2023/04/15 07:59:41;;;;;;;16.80;3.13;;;15.80;62.80;;;;;;4919250;29;20391;-78
2023/04/15 08:02:07;;;;;;;18.63;3.33;;;15.80;63.10;;;;;;4918111;29;20052;-77
2023/04/15 08:04:33;;;;;;;14.20;3.10;;;15.80;63.20;;;;;;4918507;29;20127;-76
2023/04/15 08:06:58;;;;;;;16.05;2.75;;;15.70;62.90;;;;;;4918795;29;20036;-77
2023/04/15 08:09:25;;;;;;;11.63;2.92;;;15.70;62.80;;;;;;4917792;29;20452;-77
2023/04/15 08:11:52;;;;;;;12.35;2.45;;;15.70;62.70;;;;;;4918922;29;20103;-76
2023/04/15 08:14:17;;;;;;;12.05;3.08;;;15.70;62.70;;;;;;4912593;29;20056;-78
2023/04/15 08:16:43;;;;;;;11.25;2.38;;;15.60;62.70;;;;;;4918665;29;20078;-76
2023/04/15 08:19:09;;;;;;;10.15;2.65;;;15.70;62.70;;;;;;4921259;29;20380;-75
2023/04/15 08:21:35;;;;;;;9.05;2.13;;;15.60;62.70;;;;;;4922788;29;20052;-77
2023/04/15 08:24:04;;;;;;;11.82;2.63;;;15.60;62.70;;;;;;4922391;29;20044;-80
2023/04/15 08:26:32;;;;;;;12.98;2.30;;;15.60;62.70;;;;;;4895891;29;20055;-77
2023/04/15 08:28:58;;;;;;;12.77;2.38;;;15.50;62.70;;;;;;4919680;29;20122;-77
2023/04/15 08:31:28;;;;;;;11.32;2.47;;;15.50;62.90;;;;;;4922354;29;20060;-77
2023/04/15 08:33:56;;;;;;;11.23;2.35;;;15.50;63.20;;;;;;4905801;29;20071;-79
2023/04/15 08:36:22;;;;;;;10.18;1.90;;;15.50;63.30;;;;;;4904903;29;20052;-79
2023/04/15 08:38:48;;;;;;;9.32;2.03;;;15.50;63.50;;;;;;4922157;29;20048;-78
2023/04/15 08:41:26;;;;;;;12.68;1.85;;;15.50;63.40;;;;;;4919030;29;20043;-78
2023/04/15 08:44:04;;;;;;;14.63;2.40;;;15.50;63.60;;;;;;4903534;29;20052;-82
2023/04/15 08:46:33;;;;;;;17.90;2.88;;;15.50;63.70;;;;;;4887058;29;20060;-78
2023/04/15 08:49:00;;;;;;;11.98;2.13;;;15.40;63.70;;;;;;4903226;29;20368;-79
2023/04/15 08:51:27;;;;;;;11.65;1.70;;;15.40;63.80;;;;;;4912863;29;20481;-78
2023/04/15 08:53:53;;;;;;;12.70;1.50;;;15.40;63.90;;;;;;4922020;29;20116;-78
2023/04/15 08:56:27;;;;;;;14.85;2.22;;;15.40;63.90;;;;;;4890174;29;20044;-79
2023/04/15 08:58:53;;;;;;;10.48;2.13;;;15.40;64.00;;;;;;4889578;29;20111;-78
2023/04/15 09:01:19;;;;;;;11.60;1.50;;;15.40;64.00;;;;;;4921846;29;20047;-78
2023/04/15 09:03:48;;;;;;;6.57;1.58;;;15.40;64.00;;;;;;4901522;29;20351;-78
2023/04/15 09:06:16;;;;;;;13.07;1.73;;;15.30;63.90;;;;;;4904981;29;20049;-79
2023/04/15 09:08:41;;;;;;;7.97;1.38;;;15.30;64.50;;;;;;4905444;29;20498;-79
2023/04/15 09:11:07;;;;;;;11.95;1.73;;;15.40;64.00;;;;;;4904086;29;20079;-80
2023/04/15 09:13:33;;;;;;;9.43;1.10;;;15.40;63.80;;;;;;4921744;29;20131;-79
2023/04/15 09:16:03;;;;;;;7.28;1.17;;;15.40;63.60;;;;;;4921557;29;20375;-79
2023/04/15 09:18:33;;;;;;;9.90;1.35;;;15.30;63.50;;;;;;4921404;29;20063;-79
2023/04/15 09:21:10;;;;;;;4.70;0.85;;;15.30;63.50;;;;;;4921639;29;20056;-80
2023/04/15 09:23:37;;;;;;;7.72;1.33;;;15.30;63.50;;;;;;4921379;29;20376;-78
2023/04/15 09:26:05;;;;;;;5.93;1.25;;;15.30;63.50;;;;;;4905364;29;20052;-78
2023/04/15 09:28:31;;;;;;;10.75;1.67;;;15.30;63.60;;;;;;4903898;29;20048;-78
2023/04/15 09:30:58;;;;;;;11.10;1.42;;;15.30;63.60;;;;;;4921019;29;20132;-78
2023/04/15 09:33:26;;;;;;;7.45;1.23;;;15.30;63.60;;;;;;4921183;29;20161;-78
2023/04/15 09:36:06;;;;;;;8.10;1.10;;;15.30;63.60;;;;;;4921285;29;20091;-78
2023/04/15 09:38:32;;;;;;;6.80;1.38;;;15.30;63.70;;;;;;4921366;29;20108;-78
2023/04/15 09:40:58;;;;;;;4.68;1.25;;;15.30;63.60;;;;;;4904813;29;20404;-79
2023/04/15 09:43:45;;;;;;;5.55;1.25;;;15.30;63.60;;;;;;4920563;29;20048;-78
2023/04/15 09:46:11;;;;;;;5.38;1.25;;;15.30;63.70;;;;;;4919996;29;20413;-80
2023/04/15 09:48:36;;;;;;;5.13;1.35;;;15.20;63.50;;;;;;4888824;29;20140;-79
2023/04/15 09:51:03;;;;;;;5.50;1.23;;;15.30;63.70;;;;;;4920682;29;20044;-80
2023/04/15 09:53:33;;;;;;;5.40;0.90;;;15.30;63.80;;;;;;4920934;29;20058;-78
2023/04/15 09:56:01;;;;;;;7.97;1.35;;;15.20;63.70;;;;;;4888451;29;20047;-72
2023/04/15 09:58:32;;;;;;;6.20;1.10;;;15.20;63.50;;;;;;4904467;29;20391;-76
2023/04/15 10:01:00;;;;;;;7.55;1.15;;;15.30;63.50;;;;;;4920590;29;20044;-74
2023/04/15 10:03:28;;;;;;;13.70;1.30;;;15.40;63.50;;;;;;4920123;29;20052;-76
2023/04/15 10:05:57;;;;;;;13.70;1.33;;;15.40;63.60;;;;;;4920615;29;20544;-74
2023/04/15 10:08:26;;;;;;;14.32;1.88;;;15.40;62.90;;;;;;4914394;29;20055;-79
2023/04/15 10:10:53;;;;;;;14.80;2.22;;;15.40;63.90;;;;;;4908406;29;20048;-77
2023/04/15 10:13:24;;;;;;;19.10;2.63;;;15.50;63.60;;;;;;4914203;29;20059;-75
2023/04/15 10:16:05;;;;;;;15.88;2.33;;;15.50;63.90;;;;;;4919607;29;20068;-79
2023/04/15 10:18:39;;;;;;;15.98;2.33;;;15.50;64.10;;;;;;4919742;29;20044;-82
2023/04/15 10:21:07;;;;;;;14.95;2.58;;;15.60;64.50;;;;;;4903786;29;20123;-76
2023/04/15 10:23:33;;;;;;;10.60;2.17;;;15.60;64.60;;;;;;4920591;29;20368;-76
2023/04/15 10:25:59;;;;;;;18.52;2.92;;;15.60;64.80;;;;;;4920690;29;20132;-77
2023/04/15 10:28:26;;;;;;;17.17;2.28;;;15.60;64.90;;;;;;4920427;29;20484;-76
2023/04/15 10:30:52;;;;;;;14.48;2.30;;;15.60;65.10;;;;;;4919949;29;20044;-78
2023/04/15 10:33:21;;;;;;;24.27;3.15;;;15.60;65.30;;;;;;4919706;29;20036;-78
2023/04/15 10:35:49;;;;;;;26.38;3.33;;;15.70;65.60;;;;;;4916102;29;20059;-77
2023/04/15 10:38:32;;;;;;;30.52;3.50;;;15.70;65.90;;;;;;4919825;29;20083;-75
2023/04/15 10:41:16;;;;;;;28.00;4.15;;;15.70;66.30;;;;;;4914729;29;20487;-77
2023/04/15 10:43:52;;;;;;;24.23;4.05;;;15.70;66.30;;;;;;4915176;29;20044;-77
2023/04/15 10:46:42;;;;;;;19.83;3.25;;;15.70;66.20;;;;;;4919857;29;20471;-75
2023/04/15 10:49:15;;;;;;;29.35;3.58;;;15.70;66.20;;;;;;4919136;29;20060;-75
2023/04/15 10:51:46;;;;;;;38.40;3.87;;;15.70;66.50;;;;;;4912420;29;20099;-75
2023/04/15 10:54:25;;;;;;;28.60;4.13;;;15.70;66.50;;;;;;4914114;29;20040;-82
2023/04/15 10:57:12;;;;;;;20.88;2.78;;;15.70;66.40;;;;;;4919802;29;20414;-75
2023/04/15 10:59:57;;;;;;;24.63;3.70;;;15.70;65.20;;;;;;4910624;29;20128;-75
2023/04/15 11:02:46;;;;;;;29.73;4.47;;;15.70;66.00;;;;;;4919688;29;20055;-75
2023/04/15 11:05:14;;;;;;;23.13;3.30;;;15.70;65.90;;;;;;4919210;29;20482;-74
2023/04/15 11:07:46;;;;;;;27.58;4.60;;;15.70;66.00;;;;;;4918819;29;20468;-74
2023/04/15 11:10:19;;;;;;;24.92;3.47;;;15.70;65.80;;;;;;4918946;29;20378;-74
2023/04/15 11:12:46;;;;;;;25.35;3.42;;;15.80;65.70;;;;;;4903329;29;20060;-75
2023/04/15 11:15:29;;;;;;;19.67;2.92;;;15.80;65.60;;;;;;4919591;29;20052;-75
2023/04/15 11:17:56;;;;;;;20.27;3.13;;;15.90;65.50;;;;;;4918873;29;20094;-77
2023/04/15 11:20:22;;;;;;;21.63;2.88;;;16.00;65.30;;;;;;4919168;29;20048;-77
2023/04/15 11:22:52;;;;;;;18.38;2.90;;;16.10;65.10;;;;;;4919362;29;20139;-75
2023/04/15 11:25:26;;;;;;;19.20;2.75;;;16.20;65.00;;;;;;4919020;29;20351;-74
2023/04/15 11:27:53;;;;;;;14.57;2.28;;;16.20;64.70;;;;;;4917904;29;20055;-76
2023/04/15 11:30:21;;;;;;;22.55;2.33;;;16.20;64.50;;;;;;4918511;29;20048;-74
2023/04/15 11:32:51;;;;;;;17.35;3.25;;;16.30;64.40;;;;;;4919111;29;20062;-75
2023/04/15 11:35:17;;;;;;;11.85;1.92;;;16.40;64.30;;;;;;4919277;29;20115;-76
2023/04/15 11:37:44;;;;;;;16.40;2.47;;;16.40;64.10;;;;;;4918978;29;20056;-75
2023/04/15 11:40:11;;;;;;;9.30;1.85;;;16.40;64.00;;;;;;4919362;29;20548;-77
2023/04/15 11:42:37;;;;;;;12.60;1.95;;;16.40;63.90;;;;;;4919172;29;20052;-72
2023/04/15 11:45:13;;;;;;;14.38;2.10;;;16.40;63.90;;;;;;4903271;29;20462;-77
2023/04/15 11:47:42;;;;;;;9.07;1.50;;;16.40;64.70;;;;;;4918821;29;20048;-77
2023/04/15 11:50:21;;;;;;;14.73;1.80;;;16.40;64.40;;;;;;4918954;29;20055;-77
2023/04/15 11:52:58;;;;;;;7.38;1.73;;;16.40;64.30;;;;;;4919275;29;20097;-77
2023/04/15 11:55:25;;;;;;;12.10;1.70;;;16.30;64.20;;;;;;4918724;29;20055;-78
2023/04/15 11:58:05;;;;;;;14.23;1.10;;;16.30;64.20;;;;;;4918456;29;20127;-79
2023/04/15 12:00:32;;;;;;;4.78;1.20;;;16.30;64.20;;;;;;4919516;29;20055;-78
2023/04/15 12:03:17;;;;;;;5.95;1.50;;;16.30;64.20;;;;;;4902517;29;20103;-77
2023/04/15 12:06:02;;;;;;;6.93;1.40;;;16.30;64.10;;;;;;4918804;29;20474;-78
2023/04/15 12:08:47;;;;;;;6.15;1.15;;;16.30;64.10;;;;;;4901624;29;20056;-78
2023/04/15 12:11:16;;;;;;;9.10;1.98;;;16.20;64.00;;;;;;4918599;29;20063;-79
2023/04/15 12:13:48;;;;;;;8.95;1.52;;;16.20;64.00;;;;;;4918807;29;20048;-79
2023/04/15 12:16:20;;;;;;;6.55;1.40;;;16.30;64.00;;;;;;4918151;29;20371;-79
2023/04/15 12:18:47;;;;;;;11.07;1.95;;;16.30;63.90;;;;;;4901814;29;20059;-80
2023/04/15 12:21:13;;;;;;;6.32;1.10;;;16.30;64.50;;;;;;4886590;29;20055;-79
2023/04/15 12:23:53;;;;;;;8.68;1.67;;;16.30;64.60;;;;;;4918895;29;20051;-80
2023/04/15 12:26:30;;;;;;;10.68;1.98;;;16.30;64.70;;;;;;4901796;29;20111;-79
2023/04/15 12:29:07;;;;;;;14.30;1.83;;;16.30;64.90;;;;;;4886321;29;20048;-80
2023/04/15 12:31:36;;;;;;;22.25;2.90;;;16.40;64.40;;;;;;4918180;29;20436;-78
2023/04/15 12:34:03;;;;;;;22.50;2.55;;;16.40;64.60;;;;;;4902214;29;20040;-78
2023/04/15 12:36:35;;;;;;;23.55;2.90;;;16.40;64.40;;;;;;4918863;29;20096;-82
2023/04/15 12:39:05;;;;;;;26.42;3.75;;;16.40;64.40;;;;;;4918397;29;20455;-78
2023/04/15 12:41:31;;;;;;;24.95;4.03;;;16.40;64.70;;;;;;4917229;29;20074;-79
2023/04/15 12:43:58;;;;;;;15.77;3.15;;;16.40;65.10;;;;;;4899532;29;20048;-78
2023/04/15 12:46:24;;;;;;;39.40;4.38;;;16.40;65.20;;;;;;4901293;29;20044;-79
2023/04/15 12:48:51;;;;;;;31.90;4.45;;;16.40;65.60;;;;;;4917920;29;20052;-79
2023/04/15 12:51:17;;;;;;;47.47;6.15;;;16.40;65.60;;;;;;4899646;29;20357;-76
2023/04/15 12:53:43;;;;;;;24.77;3.13;;;16.40;65.30;;;;;;4899426;29;20048;-77
2023/04/15 12:56:09;;;;;;;26.65;3.72;;;16.40;65.50;;;;;;4908954;29;20444;-78
2023/04/15 12:58:35;;;;;;;30.63;3.80;;;16.50;65.30;;;;;;4885487;29;20352;-78
2023/04/15 13:01:01;;;;;;;20.10;2.83;;;16.40;64.90;;;;;;4916324;29;20084;-78
2023/04/15 13:03:26;;;;;;;20.20;3.30;;;16.40;65.10;;;;;;4919372;29;20436;-81
2023/04/15 13:05:52;;;;;;;26.40;2.90;;;16.30;65.10;;;;;;4921475;29;20095;-76
2023/04/15 13:08:18;;;;;;;23.45;3.20;;;16.30;64.90;;;;;;4921079;29;20036;-77
2023/04/15 13:10:44;;;;;;;27.52;3.85;;;16.30;64.60;;;;;;4903958;29;20145;-78
2023/04/15 13:13:09;;;;;;;25.25;3.60;;;16.30;65.10;;;;;;4920910;29;20040;-78
2023/04/15 13:15:35;;;;;;;22.08;3.15;;;16.30;64.70;;;;;;4919945;29;20056;-76
2023/04/15 13:18:01;;;;;;;29.58;4.57;;;16.20;64.80;;;;;;4919506;29;20048;-78
2023/04/15 13:20:27;;;;;;;24.05;3.03;;;16.20;65.20;;;;;;4920206;29;20044;-77
2023/04/15 13:22:53;;;;;;;26.17;3.67;;;16.20;65.30;;;;;;4921259;29;20063;-77
2023/04/15 13:25:19;;;;;;;31.83;3.45;;;16.20;65.10;;;;;;4924440;29;20047;-77
2023/04/15 13:27:45;;;;;;;28.83;4.03;;;16.20;65.20;;;;;;4923009;29;20051;-78
2023/04/15 13:30:12;;;;;;;18.75;3.40;;;16.20;65.30;;;;;;4904111;29;20052;-76
2023/04/15 13:32:41;;;;;;;21.95;3.25;;;16.30;65.50;;;;;;4920472;29;20119;-78
2023/04/15 13:35:07;;;;;;;20.25;3.08;;;16.30;65.50;;;;;;4920794;29;20067;-77
2023/04/15 13:37:33;;;;;;;20.77;2.33;;;16.30;65.60;;;;;;4920883;29;20115;-77
2023/04/15 13:39:58;;;;;;;16.02;2.67;;;16.30;65.80;;;;;;4920566;29;20051;-75
2023/04/15 13:42:25;;;;;;;17.40;2.83;;;16.30;65.50;;;;;;4920558;29;20127;-78
2023/04/15 13:44:51;;;;;;;19.77;3.15;;;16.30;65.10;;;;;;4920437;29;20474;-79
2023/04/15 13:47:21;;;;;;;22.52;3.67;;;16.20;64.60;;;;;;4902391;29;20056;-77
2023/04/15 13:49:47;;;;;;;14.13;2.65;;;16.20;64.50;;;;;;4919465;29;20036;-77
2023/04/15 13:52:13;;;;;;;25.25;3.30;;;16.20;64.50;;;;;;4920388;29;20478;-78
2023/04/15 13:54:39;;;;;;;28.17;4.00;;;16.20;64.60;;;;;;4904042;29;20139;-78
2023/04/15 13:57:09;;;;;;;30.73;2.88;;;16.20;64.60;;;;;;4888368;29;20052;-78
2023/04/15 13:59:36;;;;;;;36.35;4.03;;;16.20;64.80;;;;;;4916764;29;20082;-76
2023/04/15 14:02:02;;;;;;;24.70;3.45;;;16.20;64.90;;;;;;4920183;29;20040;-76
2023/04/15 14:04:27;;;;;;;26.02;2.83;;;16.20;65.10;;;;;;4920286;29;20063;-78
2023/04/15 14:06:53;;;;;;;24.30;3.78;;;16.20;65.00;;;;;;4919687;29;20390;-77
2023/04/15 14:09:22;;;;;;;22.85;3.30;;;16.20;64.90;;;;;;4919921;29;20063;-78
2023/04/15 14:11:50;;;;;;;27.98;3.05;;;16.20;64.80;;;;;;4919298;29;20052;-78
2023/04/15 14:14:16;;;;;;;17.95;2.60;;;16.20;64.90;;;;;;4919547;29;20047;-78
2023/04/15 14:16:42;;;;;;;23.70;2.88;;;16.20;64.90;;;;;;4919598;29;20056;-80
2023/04/15 14:19:08;;;;;;;22.92;3.22;;;16.20;64.90;;;;;;4919349;29;20083;-80
2023/04/15 14:21:33;;;;;;;20.02;3.53;;;16.20;65.00;;;;;;4902836;29;20596;-78
2023/04/15 14:23:59;;;;;;;22.00;2.97;;;16.20;65.10;;;;;;4900995;29;20135;-80
2023/04/15 14:26:25;;;;;;;22.30;2.90;;;16.20;65.20;;;;;;4920225;29;20048;-80
2023/04/15 14:28:51;;;;;;;22.35;4.15;;;16.20;65.50;;;;;;4903548;29;20320;-78
2023/04/15 14:31:17;;;;;;;29.35;2.97;;;16.30;65.50;;;;;;4903318;29;20048;-80
2023/04/15 14:33:43;;;;;;;21.83;2.95;;;16.30;65.50;;;;;;4920162;29;20505;-79
2023/04/15 14:36:09;;;;;;;20.50;3.13;;;16.20;65.40;;;;;;4920376;29;20131;-79
2023/04/15 14:38:38;;;;;;;12.20;1.85;;;16.30;65.50;;;;;;4918880;29;20112;-79
2023/04/15 14:41:08;;;;;;;16.65;2.58;;;16.20;65.40;;;;;;4919930;29;20059;-78
2023/04/15 14:43:35;;;;;;;12.35;2.38;;;16.20;65.30;;;;;;4920125;29;20063;-78
2023/04/15 14:46:01;;;;;;;18.10;2.63;;;16.20;65.90;;;;;;4920030;29;20173;-80
2023/04/15 14:48:27;;;;;;;18.58;2.80;;;16.20;65.40;;;;;;4903258;29;20454;-79
2023/04/15 14:50:53;;;;;;;16.73;3.10;;;16.20;65.50;;;;;;4919506;29;20059;-78
2023/04/15 14:53:19;;;;;;;15.90;2.63;;;16.20;65.40;;;;;;4903412;29;20048;-80
2023/04/15 14:55:44;;;;;;;22.35;3.03;;;16.20;65.40;;;;;;4920039;29;20063;-80
2023/04/15 14:58:10;;;;;;;17.90;3.03;;;16.20;65.50;;;;;;4903410;29;20044;-83
2023/04/15 15:00:40;;;;;;;20.27;2.65;;;16.20;65.60;;;;;;4927598;29;20044;-82
2023/04/15 15:03:13;;;;;;;18.65;3.42;;;16.20;65.80;;;;;;4926047;29;20059;-81
2023/04/15 15:05:43;;;;;;;25.40;3.25;;;16.20;66.00;;;;;;4919370;29;20127;-82
2023/04/15 15:08:09;;;;;;;30.92;3.40;;;16.20;66.00;;;;;;4886706;29;20048;-79
2023/04/15 15:10:35;;;;;;;27.55;3.63;;;16.20;65.50;;;;;;4919620;29;20119;-81
2023/04/15 15:13:07;;;;;;;39.47;5.07;;;16.20;65.50;;;;;;4886548;29;20127;-80
2023/04/15 15:15:33;;;;;;;54.42;6.85;;;16.30;65.50;;;;;;4919586;29;20040;-81
2023/04/15 15:17:59;;;;;;;74.38;8.82;;;16.30;65.70;;;;;;4902662;29;20044;-81
2023/04/15 15:20:26;;;;;;;59.80;8.32;;;16.30;65.90;;;;;;4886965;29;20044;-81
2023/04/15 15:22:52;;;;;;;59.72;8.60;;;16.30;66.00;;;;;;4902112;29;20082;-82
2023/04/15 15:25:20;;;;;;;58.95;6.82;;;16.40;66.30;;;;;;4902238;29;20079;-82
2023/04/15 15:27:46;;;;;;;56.92;7.90;;;16.40;66.60;;;;;;4901860;29;20094;-79
2023/04/15 15:30:15;;;;;;;53.85;7.72;;;16.40;66.50;;;;;;4902475;29;20114;-82
2023/04/15 15:32:42;;;;;;;54.55;7.43;;;16.40;66.50;;;;;;4902021;29;20383;-83
2023/04/15 15:35:08;;;;;;;54.75;7.38;;;16.50;66.60;;;;;;4902146;29;20375;-83
2023/04/15 15:37:35;;;;;;;50.28;8.48;;;16.50;66.60;;;;;;4887084;29;20055;-81
2023/04/15 15:40:03;;;;;;;49.90;6.63;;;16.60;66.80;;;;;;4886973;29;20139;-84
2023/04/15 15:42:38;;;;;;;40.75;5.78;;;16.50;66.90;;;;;;4902156;29;20427;-82
2023/04/15 15:45:04;;;;;;;42.22;5.10;;;16.60;67.00;;;;;;4918931;29;20107;-83
2023/04/15 15:47:33;;;;;;;47.92;6.32;;;16.50;67.00;;;;;;4918834;29;20055;-84
2023/04/15 15:53:41;;;;;;;25.05;4.80;;;16.50;67.40;;;;;;4842146;29;20129;-84
2023/04/15 15:56:07;;;;;;;47.67;6.07;;;16.60;67.50;;;;;;4835175;29;20145;-80
2023/04/15 15:58:32;;;;;;;39.38;6.20;;;16.50;67.40;;;;;;4896564;29;20123;-79
2023/04/15 16:00:58;;;;;;;41.70;5.43;;;16.50;67.70;;;;;;4902491;29;20048;-78
2023/04/15 16:03:24;;;;;;;33.08;4.72;;;16.50;67.80;;;;;;4918760;29;20079;-78
2023/04/15 16:05:50;;;;;;;42.65;6.40;;;16.50;67.80;;;;;;4902294;29;20416;-78
2023/04/15 16:08:15;;;;;;;36.15;5.90;;;16.50;67.90;;;;;;4919095;29;20056;-79
2023/04/15 16:10:41;;;;;;;30.08;6.00;;;16.50;68.20;;;;;;4901995;29;20048;-81
2023/04/15 16:13:09;;;;;;;42.42;6.28;;;16.50;68.20;;;;;;4918556;29;20486;-81
2023/04/15 16:15:35;;;;;;;40.80;5.63;;;16.40;68.20;;;;;;4918529;29;20056;-80
2023/04/15 16:18:00;;;;;;;30.40;4.95;;;16.40;68.00;;;;;;4918819;29;20052;-79
2023/04/15 16:20:27;;;;;;;24.02;5.05;;;16.40;68.30;;;;;;4918581;29;20055;-79
2023/04/15 16:22:55;;;;;;;35.67;5.43;;;16.40;68.40;;;;;;4918535;29;20056;-78
2023/04/15 16:25:21;;;;;;;33.35;5.00;;;16.40;68.50;;;;;;4918542;29;20076;-81
2023/04/15 16:27:47;;;;;;;33.40;4.88;;;16.30;68.50;;;;;;4902095;29;20542;-79
2023/04/15 16:30:13;;;;;;;31.23;4.93;;;16.40;68.50;;;;;;4918834;29;20044;-81
2023/04/15 16:32:39;;;;;;;32.97;5.25;;;16.40;68.60;;;;;;4917521;29;20459;-81
2023/04/15 16:35:05;;;;;;;27.55;4.00;;;16.40;68.60;;;;;;4914536;29;20055;-81
2023/04/15 16:37:32;;;;;;;31.88;4.70;;;16.40;68.60;;;;;;4888170;29;20084;-77
2023/04/15 16:39:58;;;;;;;37.22;5.22;;;16.30;68.50;;;;;;4921910;29;20076;-81
2023/04/15 16:42:24;;;;;;;29.23;4.25;;;16.40;68.30;;;;;;4905305;29;20581;-80
2023/04/15 16:44:49;;;;;;;32.90;4.78;;;16.40;68.30;;;;;;4889264;29;20111;-80
2023/04/15 16:47:15;;;;;;;40.47;4.68;;;16.30;68.30;;;;;;4922025;29;20083;-76
2023/04/15 16:49:41;;;;;;;34.97;4.80;;;16.30;68.30;;;;;;4905051;29;20052;-81
2023/04/15 16:52:07;;;;;;;33.28;4.75;;;16.30;68.40;;;;;;4921628;29;20099;-83
2023/04/15 16:54:34;;;;;;;32.67;4.50;;;16.30;68.50;;;;;;4904992;29;20042;-83
2023/04/15 18:38:04;;;;;;;10.82;1.88;;;15.80;66.30;;;;;;4880228;29;20536;-79
2023/04/15 18:40:36;;;;;;;9.75;1.83;;;15.80;66.40;;;;;;4866212;29;20149;-81
2023/04/15 18:43:23;;;;;;;8.98;2.03;;;15.80;66.50;;;;;;4882251;29;20045;-82
2023/04/15 18:46:19;;;;;;;9.75;1.90;;;15.80;66.50;;;;;;4878642;29;20156;-82
2023/04/15 18:48:45;;;;;;;9.13;2.22;;;15.80;66.60;;;;;;4872948;29;20482;-76
2023/04/15 18:51:57;;;;;;;7.25;1.73;;;15.80;66.50;;;;;;4868743;29;20128;-87
2023/04/15 18:54:23;;;;;;;11.27;2.13;;;15.80;66.50;;;;;;4848051;29;20041;-83
2023/04/15 18:56:50;;;;;;;9.15;2.45;;;15.80;66.30;;;;;;4862800;29;20042;-77
2023/04/15 18:59:16;;;;;;;10.93;1.98;;;15.80;66.30;;;;;;4875534;29;20032;-75
2023/04/15 19:01:42;;;;;;;8.10;1.33;;;15.80;66.30;;;;;;4886761;29;20324;-77
2023/04/15 19:04:08;;;;;;;11.32;1.77;;;15.80;66.40;;;;;;4865949;29;20075;-77
2023/04/15 19:06:34;;;;;;;8.13;1.45;;;15.80;66.80;;;;;;4880363;29;20425;-78
2023/04/15 19:09:03;;;;;;;9.52;1.70;;;15.80;67.00;;;;;;4900717;29;20051;-81
2023/04/15 19:11:29;;;;;;;7.78;2.08;;;15.80;67.80;;;;;;4884019;29;20045;-77
2023/04/15 19:13:55;;;;;;;8.20;1.38;;;15.80;68.40;;;;;;4900801;29;20047;-76
2023/04/15 19:16:20;;;;;;;8.05;2.13;;;15.80;68.30;;;;;;4899166;29;20531;-76
2023/04/15 19:18:49;;;;;;;10.52;2.13;;;15.80;69.30;;;;;;4882336;29;20057;-81
2023/04/15 19:21:15;;;;;;;8.27;2.17;;;15.80;69.90;;;;;;4881888;29;20056;-79
2023/04/15 19:23:44;;;;;;;10.32;2.00;;;15.80;69.70;;;;;;4865375;29;20120;-79
2023/04/15 19:26:10;;;;;;;11.68;2.20;;;15.80;69.40;;;;;;4881965;29;20080;-70
2023/04/15 19:28:36;;;;;;;10.32;2.22;;;15.80;69.00;;;;;;4880941;29;20041;-76
2023/04/15 19:31:02;;;;;;;11.77;1.95;;;15.80;68.80;;;;;;4881429;29;20425;-75
2023/04/15 19:33:30;;;;;;;7.53;1.90;;;15.80;68.90;;;;;;4881534;29;20065;-75
2023/04/15 19:36:04;;;;;;;7.18;1.67;;;15.80;69.00;;;;;;4902800;29;20486;-76
2023/04/15 19:38:31;;;;;;;12.15;2.35;;;15.80;69.20;;;;;;4920075;29;20060;-75
2023/04/15 19:40:58;;;;;;;7.85;1.83;;;15.70;69.10;;;;;;4903267;29;20051;-76
2023/04/15 19:43:23;;;;;;;9.75;1.90;;;15.70;69.60;;;;;;4919467;29;20048;-77